createdAt,value
2019-04-11T04:00:59.365Z,85.24
2019-04-11T04:01:57.524Z,85.80
2019-04-11T04:02:57.562Z,85.90
2019-04-11T04:03:56.116Z,85.80
2019-04-11T04:04:57.077Z,86.37
2019-04-11T04:05:57.365Z,86.09
2019-04-11T04:06:57.818Z,86.66
2019-04-11T04:07:58.232Z,85.99
2019-04-11T04:08:58.489Z,85.80
2019-04-11T04:09:58.447Z,85.52
2019-04-11T04:10:58.347Z,85.80
2019-04-11T04:11:59.019Z,86.18
2019-04-11T04:12:58.368Z,86.09
2019-04-11T04:13:59.424Z,85.80
2019-04-11T04:14:59.183Z,85.90
2019-04-11T04:16:08.173Z,85.71
2019-04-11T04:17:01.573Z,85.80
2019-04-11T04:17:59.721Z,86.09
2019-04-11T04:19:00.890Z,86.18
2019-04-11T04:19:59.589Z,86.66
2019-04-11T04:20:59.693Z,86.94
2019-04-11T04:21:59.555Z,87.04
2019-04-11T04:23:00.551Z,86.85
2019-04-11T04:24:02.184Z,86.85
2019-04-11T04:25:01.066Z,86.75
2019-04-11T04:26:01.154Z,86.85
2019-04-11T04:27:01.734Z,86.75
2019-04-11T04:28:00.438Z,86.85
2019-04-11T04:29:01.924Z,86.61
2019-04-11T04:30:04.147Z,86.56
2019-04-11T04:31:01.990Z,86.23
2019-04-11T04:32:02.608Z,86.61
2019-04-11T04:33:02.776Z,86.71
2019-04-11T04:34:01.965Z,87.55
2019-04-11T04:35:01.790Z,87.37
2019-04-11T04:36:02.417Z,87.27
2019-04-11T04:37:03.490Z,86.80
2019-04-11T04:38:03.020Z,86.99
2019-04-11T04:39:03.627Z,87.08
2019-04-11T04:40:21.728Z,87.37
2019-04-11T04:41:16.790Z,88.03
2019-04-11T04:42:08.874Z,88.22
2019-04-11T04:43:05.144Z,87.65
2019-04-11T04:44:04.504Z,87.65
2019-04-11T04:45:04.827Z,87.55
2019-04-11T04:46:17.251Z,87.37
2019-04-11T04:47:15.665Z,87.55
2019-04-11T04:48:08.464Z,86.99
2019-04-11T04:49:04.753Z,87.08
2019-04-11T04:50:04.668Z,87.65
2019-04-11T04:51:08.972Z,87.65
2019-04-11T04:52:05.929Z,87.55
2019-04-11T04:53:05.176Z,87.46
2019-04-11T04:54:05.896Z,87.84
2019-04-11T04:55:06.171Z,87.74
2019-04-11T04:56:06.594Z,87.93
2019-04-11T04:57:05.147Z,88.22
2019-04-11T04:58:07.114Z,87.93
2019-04-11T04:59:07.046Z,88.12
2019-04-11T05:00:07.107Z,88.12
2019-04-11T05:01:06.877Z,87.46
2019-04-11T05:02:06.684Z,86.71
2019-04-11T05:03:07.739Z,86.47
2019-04-11T05:04:06.837Z,87.27
2019-04-11T05:05:06.495Z,87.41
2019-04-11T05:06:07.727Z,87.51
2019-04-11T05:07:07.339Z,87.13
2019-04-11T05:08:08.389Z,87.04
2019-04-11T05:09:08.521Z,86.56
2019-04-11T05:10:08.866Z,86.66
2019-04-11T05:11:07.712Z,86.47
2019-04-11T05:12:07.641Z,86.47
2019-04-11T05:13:07.891Z,86.09
2019-04-11T05:14:07.980Z,85.61
2019-04-11T05:15:08.170Z,85.90
2019-04-11T05:16:16.848Z,86.09
2019-04-11T05:19:40.486Z,86.33
2019-04-11T05:20:40.732Z,86.61
2019-04-11T05:21:41.437Z,86.56
2019-04-11T05:22:41.572Z,86.23
2019-04-11T05:23:41.728Z,86.61
2019-04-11T05:24:41.091Z,86.75
2019-04-11T05:25:42.456Z,87.08
2019-04-11T05:26:41.801Z,87.18
2019-04-11T05:27:41.896Z,87.04
2019-04-11T05:28:41.716Z,87.18
2019-04-11T05:29:41.882Z,86.71
2019-04-11T05:30:42.054Z,87.13
2019-04-11T05:31:42.780Z,87.23
2019-04-11T05:32:42.387Z,86.99
2019-04-11T05:33:43.452Z,87.23
2019-04-11T05:34:43.519Z,86.47
2019-04-11T05:35:43.774Z,87.23
2019-04-11T05:36:43.067Z,86.94
2019-04-11T05:37:43.235Z,86.75
2019-04-11T05:38:44.262Z,86.47
2019-04-11T05:39:44.881Z,87.04
2019-04-11T05:40:43.743Z,86.66
2019-04-11T05:41:46.635Z,86.18
2019-04-11T05:42:45.123Z,86.56
2019-04-11T05:43:45.191Z,86.47
2019-04-11T05:44:45.158Z,86.47
2019-04-11T05:45:45.502Z,86.56
2019-04-11T05:46:52.398Z,86.56
2019-04-11T05:47:46.133Z,86.56
2019-04-11T05:48:45.299Z,86.47
2019-04-11T05:49:46.532Z,86.28
2019-04-11T05:50:48.386Z,86.09
2019-04-11T05:51:47.535Z,86.09
2019-04-11T05:52:45.759Z,86.47
2019-04-11T05:53:48.591Z,86.28
2019-04-11T05:54:48.942Z,86.28
2019-04-11T05:55:47.509Z,86.85
2019-04-11T05:56:52.046Z,86.56
2019-04-11T05:57:46.873Z,86.85
2019-04-11T05:58:47.442Z,87.13
2019-04-11T05:59:49.922Z,86.66
2019-04-11T06:00:47.136Z,87.04
2019-04-11T06:01:47.280Z,86.28
2019-04-11T06:02:47.449Z,85.52
2019-04-11T06:03:49.274Z,85.52
2019-04-11T06:04:51.959Z,85.80
2019-04-11T06:05:47.976Z,85.38
2019-04-11T06:06:48.122Z,85.19
2019-04-11T06:07:50.654Z,84.90
2019-04-11T06:08:48.458Z,84.61
2019-04-11T06:09:48.634Z,83.76
2019-04-11T06:10:48.795Z,83.95
2019-04-11T06:11:52.388Z,84.23
2019-04-11T06:12:49.132Z,83.76
2019-04-11T06:13:49.301Z,83.48
2019-04-11T06:14:49.468Z,83.95
2019-04-11T06:15:49.636Z,83.48
2019-04-11T06:16:53.875Z,82.72
2019-04-11T06:17:50.295Z,83.33
2019-04-11T06:18:50.175Z,83.05
2019-04-11T06:19:50.324Z,82.20
2019-04-11T06:20:51.501Z,81.15
2019-04-11T06:21:50.655Z,81.25
2019-04-11T06:22:50.842Z,81.34
2019-04-11T06:23:51.784Z,80.96
2019-04-11T06:24:52.191Z,80.96
2019-04-11T06:25:51.397Z,80.87
2019-04-11T06:26:51.501Z,79.87
2019-04-11T06:27:51.676Z,79.21
2019-04-11T06:28:54.308Z,79.58
2019-04-11T06:29:52.991Z,79.02
2019-04-11T06:30:52.751Z,78.16
2019-04-11T06:31:52.346Z,78.26
2019-04-11T06:32:52.511Z,76.46
2019-04-11T06:33:53.141Z,75.79
2019-04-11T06:34:52.849Z,75.70
2019-04-11T06:35:53.018Z,75.89
2019-04-11T06:36:53.186Z,74.51
2019-04-11T06:37:54.224Z,74.69
2019-04-11T06:38:54.656Z,74.03
2019-04-11T06:39:54.557Z,74.22
2019-04-11T06:40:54.520Z,74.41
2019-04-11T06:41:54.910Z,73.94
2019-04-11T06:42:54.201Z,73.75
2019-04-11T06:43:54.371Z,72.04
2019-04-11T06:44:54.538Z,70.81
2019-04-11T06:45:54.706Z,70.81
2019-04-11T06:46:57.733Z,71.80
2019-04-11T06:47:55.046Z,71.03
2019-04-11T06:48:56.107Z,70.18
2019-04-11T06:49:55.385Z,70.18
2019-04-11T06:50:55.615Z,69.52
2019-04-11T06:51:56.689Z,69.04
2019-04-11T06:52:56.045Z,69.04
2019-04-11T06:53:56.682Z,69.52
2019-04-11T06:54:56.249Z,69.99
2019-04-11T06:55:57.305Z,69.61
2019-04-11T06:56:57.299Z,68.89
2019-04-11T06:57:56.739Z,69.55
2019-04-11T06:58:56.912Z,69.84
2019-04-11T06:59:57.081Z,69.17
2019-04-11T07:00:57.864Z,68.70
2019-04-11T07:02:08.108Z,68.13
2019-04-11T07:02:57.592Z,68.98
2019-04-11T07:03:57.763Z,68.89
2019-04-11T07:04:58.169Z,65.95
2019-04-11T07:05:59.167Z,65.56
2019-04-11T07:06:58.272Z,66.04
2019-04-11T07:07:58.471Z,66.04
2019-04-11T07:08:58.950Z,65.66
2019-04-11T07:09:59.759Z,64.43
2019-04-11T07:10:58.973Z,64.65
2019-04-11T07:11:59.308Z,65.79
2019-04-11T07:13:00.580Z,65.12
2019-04-11T07:13:59.712Z,63.13
2019-04-11T07:15:00.152Z,64.27
2019-04-11T07:16:00.471Z,64.56
2019-04-11T07:17:04.772Z,64.17
2019-04-11T07:18:01.024Z,63.32
2019-04-11T07:19:00.643Z,62.46
2019-04-11T07:20:00.481Z,62.46
2019-04-11T07:21:00.736Z,63.04
2019-04-11T07:22:00.828Z,63.13
2019-04-11T07:23:01.572Z,61.23
2019-04-11T07:24:01.161Z,61.14
2019-04-11T07:25:01.955Z,60.95
2019-04-11T07:26:02.539Z,61.14
2019-04-11T07:27:01.669Z,61.04
2019-04-11T07:28:01.839Z,60.50
2019-04-11T07:29:02.007Z,60.41
2019-04-11T07:30:03.156Z,59.93
2019-04-11T07:31:02.461Z,59.20
2019-04-11T07:32:02.633Z,58.83
2019-04-11T07:33:03.902Z,58.28
2019-04-11T07:34:02.880Z,56.85
2019-04-11T07:35:04.672Z,55.33
2019-04-11T07:36:03.885Z,55.08
2019-04-11T07:37:04.540Z,55.27
2019-04-11T07:38:03.559Z,55.49
2019-04-11T07:39:03.729Z,55.39
2019-04-11T07:40:05.706Z,54.25
2019-04-11T07:41:04.242Z,53.61
2019-04-11T07:42:04.734Z,52.18
2019-04-11T07:43:08.781Z,51.70
2019-04-11T07:44:04.574Z,51.54
2019-04-11T07:45:04.742Z,51.76
2019-04-11T07:46:04.920Z,50.32
2019-04-11T07:47:14.574Z,48.32
2019-04-11T07:48:07.100Z,48.23
2019-04-11T07:49:05.936Z,46.61
2019-04-11T07:50:05.862Z,44.99
2019-04-11T07:51:06.499Z,44.42
2019-04-11T07:52:06.762Z,45.01
2019-04-11T07:53:06.114Z,45.75
2019-04-11T07:54:06.286Z,44.96
2019-04-11T07:55:06.773Z,45.73
2019-04-11T07:56:07.702Z,46.04
2019-04-11T07:57:06.792Z,45.97
2019-04-11T07:58:06.961Z,45.39
2019-04-11T07:59:07.366Z,45.10
2019-04-11T08:00:08.159Z,44.34
2019-04-11T08:01:08.302Z,44.53
2019-04-11T08:02:08.691Z,44.53
2019-04-11T08:03:07.815Z,43.49
2019-04-11T08:04:07.985Z,43.70
2019-04-11T08:05:08.798Z,44.37
2019-04-11T08:06:08.326Z,44.74
2019-04-11T08:07:08.763Z,44.74
2019-04-11T08:08:09.478Z,44.56
2019-04-11T08:09:09.641Z,45.06
2019-04-11T08:10:10.085Z,43.33
2019-04-11T08:11:09.513Z,43.07
2019-04-11T08:12:09.349Z,41.85
2019-04-11T08:13:10.186Z,42.31
2019-04-11T08:14:10.474Z,40.20
2019-04-11T08:15:10.032Z,39.06
2019-04-11T08:16:10.575Z,39.35
2019-04-11T08:17:11.436Z,38.68
2019-04-11T08:18:10.458Z,38.68
2019-04-11T08:19:10.553Z,39.06
2019-04-11T08:20:10.973Z,40.11
2019-04-11T08:21:11.960Z,40.69
2019-04-11T08:22:11.068Z,40.59
2019-04-11T08:23:11.708Z,40.30
2019-04-11T08:24:12.046Z,41.16
2019-04-11T08:25:11.585Z,40.11
2019-04-11T08:26:11.760Z,38.39
2019-04-11T08:27:11.928Z,40.37
2019-04-11T08:28:13.855Z,40.01
2019-04-11T08:29:15.082Z,39.37
2019-04-11T08:30:12.795Z,38.60
2019-04-11T08:31:13.256Z,38.22
2019-04-11T08:32:13.688Z,39.20
2019-04-11T08:33:14.070Z,38.91
2019-04-11T08:34:13.321Z,37.36
2019-04-11T08:35:13.302Z,37.07
2019-04-11T08:36:13.749Z,37.74
2019-04-11T08:37:13.689Z,37.85
2019-04-11T08:38:14.000Z,37.21
2019-04-11T08:39:15.594Z,36.43
2019-04-11T08:40:14.159Z,36.50
2019-04-11T08:41:15.482Z,37.19
2019-04-11T08:42:14.985Z,36.43
2019-04-11T08:43:15.063Z,36.02
2019-04-11T08:44:15.369Z,36.02
2019-04-11T08:45:15.022Z,36.39
2019-04-11T08:46:15.192Z,36.37
2019-04-11T08:47:16.251Z,36.56
2019-04-11T08:48:15.540Z,36.66
2019-04-11T08:49:15.705Z,37.61
2019-04-11T08:50:16.409Z,36.96
2019-04-11T08:51:16.977Z,36.87
2019-04-11T08:52:16.230Z,36.39
2019-04-11T08:53:16.396Z,36.19
2019-04-11T08:54:17.458Z,36.99
2019-04-11T08:55:17.260Z,36.60
2019-04-11T08:56:16.916Z,37.09
2019-04-11T08:57:17.892Z,37.57
2019-04-11T08:58:17.273Z,38.53
2019-04-11T08:59:18.633Z,37.49
2019-04-11T09:00:17.806Z,37.51
2019-04-11T09:01:18.049Z,37.61
2019-04-11T09:02:18.549Z,35.88
2019-04-11T09:03:18.125Z,34.55
2019-04-11T09:04:18.523Z,34.93
2019-04-11T09:05:20.344Z,34.47
2019-04-11T09:06:18.880Z,33.99
2019-04-11T09:07:19.192Z,34.56
2019-04-11T09:08:18.990Z,33.32
2019-04-11T09:09:19.169Z,33.78
2019-04-11T09:10:19.982Z,33.40
2019-04-11T09:11:20.473Z,32.93
2019-04-11T09:12:20.556Z,33.51
2019-04-11T09:13:19.866Z,34.94
2019-04-11T09:14:20.042Z,34.20
2019-04-11T09:15:21.101Z,35.06
2019-04-11T09:16:21.505Z,34.48
2019-04-11T09:17:21.497Z,33.83
2019-04-11T09:18:21.819Z,33.53
2019-04-11T09:19:21.041Z,33.33
2019-04-11T09:20:21.402Z,33.45
2019-04-11T09:21:22.282Z,33.91
2019-04-11T09:22:22.445Z,34.67
2019-04-11T09:23:21.779Z,35.75
2019-04-11T09:24:22.075Z,34.10
2019-04-11T09:25:23.186Z,34.87
2019-04-11T09:26:22.143Z,34.10
2019-04-11T09:27:22.641Z,35.36
2019-04-11T09:28:22.508Z,34.39
2019-04-11T09:29:22.665Z,34.26
2019-04-11T09:30:23.095Z,34.64
2019-04-11T09:31:23.022Z,34.74
2019-04-11T09:32:25.063Z,34.47
2019-04-11T09:33:24.597Z,35.88
2019-04-11T09:34:23.869Z,36.15
2019-04-11T09:35:24.111Z,35.18
2019-04-11T09:36:23.987Z,36.60
2019-04-11T09:37:25.269Z,37.80
2019-04-11T09:38:24.379Z,37.97
2019-04-11T09:39:24.424Z,38.91
2019-04-11T09:40:26.050Z,40.44
2019-04-11T09:41:24.833Z,41.17
2019-04-11T09:42:26.118Z,41.84
2019-04-11T09:43:26.249Z,41.65
2019-04-11T09:44:25.291Z,42.89
2019-04-11T09:45:25.728Z,42.87
2019-04-11T09:46:26.229Z,43.44
2019-04-11T09:47:26.301Z,44.20
2019-04-11T09:48:26.315Z,43.73
2019-04-11T09:49:27.085Z,44.20
2019-04-11T09:50:26.644Z,44.39
2019-04-11T09:51:29.199Z,44.39
2019-04-11T09:52:26.990Z,44.96
2019-04-11T09:53:28.175Z,44.87
2019-04-11T09:54:28.181Z,44.96
2019-04-11T09:55:27.209Z,44.68
2019-04-11T09:56:27.378Z,45.08
2019-04-11T09:57:28.843Z,44.99
2019-04-11T09:58:27.728Z,43.79
2019-04-11T09:59:29.048Z,41.06
2019-04-11T10:00:28.876Z,39.06
2019-04-11T10:01:28.801Z,38.12
2019-04-11T10:02:28.417Z,38.24
2019-04-11T10:03:28.619Z,38.54
2019-04-11T10:04:29.761Z,37.61
2019-04-11T10:05:30.008Z,35.69
2019-04-11T10:06:30.150Z,35.63
2019-04-11T10:07:30.126Z,35.08
2019-04-11T10:08:29.461Z,35.17
2019-04-11T10:09:30.332Z,34.41
2019-04-11T10:10:29.811Z,34.61
2019-04-11T10:11:30.376Z,33.56
2019-04-11T10:12:30.163Z,32.01
2019-04-11T10:13:31.024Z,31.63
2019-04-11T10:14:31.516Z,32.09
2019-04-11T10:15:31.517Z,32.97
2019-04-11T10:16:31.804Z,33.08
2019-04-11T10:17:31.822Z,32.47
2019-04-11T10:18:37.114Z,32.95
2019-04-11T10:19:31.723Z,33.14
2019-04-11T10:20:32.819Z,33.33
2019-04-11T10:21:32.917Z,32.87
2019-04-11T10:22:32.136Z,33.58
2019-04-11T10:23:32.668Z,34.65
2019-04-11T10:24:32.634Z,32.84
2019-04-11T10:25:32.467Z,32.36
2019-04-11T10:26:32.629Z,30.74
2019-04-11T10:27:33.038Z,31.40
2019-04-11T10:28:33.434Z,31.61
2019-04-11T10:29:34.518Z,32.09
2019-04-11T10:30:33.572Z,32.75
2019-04-11T10:31:34.623Z,32.86
2019-04-11T10:32:33.689Z,30.65
2019-04-11T10:33:35.075Z,30.57
2019-04-11T10:34:34.045Z,30.73
2019-04-11T10:35:34.550Z,30.92
2019-04-11T10:36:34.954Z,31.40
2019-04-11T10:37:34.574Z,30.73
2019-04-11T10:38:34.750Z,31.99
2019-04-11T10:39:35.548Z,31.02
2019-04-11T10:40:36.386Z,31.51
2019-04-11T10:41:35.283Z,31.70
2019-04-11T10:42:35.459Z,32.01
2019-04-11T10:43:36.277Z,29.94
2019-04-11T10:44:35.978Z,30.15
2019-04-11T10:45:36.434Z,28.91
2019-04-11T10:46:36.176Z,29.38
2019-04-11T10:47:36.741Z,30.14
2019-04-11T10:48:39.818Z,30.99
2019-04-11T10:49:36.708Z,30.68
2019-04-11T10:50:37.026Z,30.87
2019-04-11T10:51:37.949Z,31.16
2019-04-11T10:52:38.288Z,31.45
2019-04-11T10:53:37.440Z,31.95
2019-04-11T10:54:38.757Z,29.93
2019-04-11T10:55:37.900Z,29.44
2019-04-11T10:56:39.145Z,30.58
2019-04-11T10:57:38.315Z,31.46
2019-04-11T10:58:38.310Z,31.67
2019-04-11T10:59:38.618Z,30.81
2019-04-11T11:00:39.727Z,30.79
2019-04-11T11:01:39.894Z,32.04
2019-04-11T11:02:39.732Z,31.34
2019-04-11T11:03:39.198Z,31.84
2019-04-11T11:04:39.377Z,32.23
2019-04-11T11:05:40.123Z,31.08
2019-04-11T11:06:39.924Z,29.82
2019-04-11T11:07:40.545Z,30.02
2019-04-11T11:08:40.091Z,31.67
2019-04-11T11:09:40.311Z,30.25
2019-04-11T11:10:40.454Z,28.91
2019-04-11T11:11:40.859Z,28.14
2019-04-11T11:12:41.432Z,27.95
2019-04-11T11:13:40.979Z,28.71
2019-04-11T11:14:41.154Z,29.38
2019-04-11T11:15:41.916Z,28.99
2019-04-11T11:16:44.991Z,28.81
2019-04-11T11:18:00.991Z,29.19
2019-04-11T11:19:15.023Z,28.92
2019-04-11T11:19:51.441Z,29.00
2019-04-11T11:20:50.214Z,28.91
2019-04-11T11:21:42.995Z,29.86
2019-04-11T11:22:43.413Z,28.91
2019-04-11T11:23:42.909Z,29.28
2019-04-11T11:24:43.994Z,27.75
2019-04-11T11:25:48.412Z,28.14
2019-04-11T11:26:43.362Z,28.33
2019-04-11T11:27:43.731Z,28.34
2019-04-11T11:28:43.649Z,28.84
2019-04-11T11:29:45.213Z,28.47
2019-04-11T11:30:44.771Z,29.24
2019-04-11T11:31:44.865Z,29.14
2019-04-11T11:32:45.294Z,27.23
2019-04-11T11:33:44.852Z,27.24
2019-04-11T11:34:48.874Z,26.28
2019-04-11T11:35:45.814Z,26.00
2019-04-11T11:36:45.746Z,26.89
2019-04-11T11:37:45.297Z,25.71
2019-04-11T11:38:46.062Z,25.60
2019-04-11T11:39:46.900Z,26.15
2019-04-11T11:40:45.799Z,26.93
2019-04-11T11:41:46.883Z,27.98
2019-04-11T11:42:46.222Z,28.18
2019-04-11T11:43:48.253Z,27.70
2019-04-11T11:44:46.704Z,27.01
2019-04-11T11:45:49.166Z,27.60
2019-04-11T11:46:46.871Z,27.02
2019-04-11T11:47:47.050Z,28.29
2019-04-11T11:48:49.958Z,27.24
2019-04-11T11:49:55.404Z,26.84
2019-04-11T11:50:50.571Z,27.04
2019-04-11T11:51:47.834Z,27.04
2019-04-11T11:52:48.948Z,27.34
2019-04-11T11:53:49.053Z,28.11
2019-04-11T11:54:48.307Z,27.26
2019-04-11T11:55:49.472Z,29.00
2019-04-11T11:56:48.973Z,28.44
2019-04-11T11:57:48.853Z,26.42
2019-04-11T11:58:56.168Z,25.63
2019-04-11T11:59:50.382Z,26.10
2019-04-11T12:00:51.994Z,27.06
2019-04-11T12:01:51.121Z,26.65
2019-04-11T12:02:52.080Z,26.53
2019-04-11T12:03:50.738Z,27.69
2019-04-11T12:04:50.114Z,27.98
2019-04-11T12:05:52.469Z,27.33
2019-04-11T12:06:56.004Z,26.65
2019-04-11T12:07:51.470Z,26.83
2019-04-11T12:08:51.464Z,29.04
2019-04-11T12:09:51.020Z,27.89
2019-04-11T12:10:51.479Z,27.71
2019-04-11T12:11:52.951Z,27.24
2019-04-11T12:12:51.928Z,27.59
2019-04-11T12:13:51.734Z,28.34
2019-04-11T12:14:51.917Z,28.59
2019-04-11T12:15:53.165Z,30.02
2019-04-11T12:16:59.602Z,29.75
2019-04-11T12:17:52.458Z,29.02
2019-04-11T12:18:54.329Z,29.03
2019-04-11T12:19:57.485Z,27.87
2019-04-11T12:20:54.741Z,28.37
2019-04-11T12:21:53.734Z,28.67
2019-04-11T12:22:53.739Z,27.34
2019-04-11T12:24:00.812Z,26.68
2019-04-11T12:24:53.715Z,25.51
2019-04-11T12:25:53.898Z,25.87
2019-04-11T12:26:54.076Z,26.54
2019-04-11T12:27:54.259Z,26.16
2019-04-11T12:28:54.439Z,26.36
2019-04-11T12:29:54.623Z,26.95
2019-04-11T12:30:57.883Z,27.16
2019-04-11T12:31:55.717Z,25.92
2019-04-11T12:32:55.172Z,25.24
2019-04-11T12:33:55.344Z,24.66
2019-04-11T12:34:55.749Z,25.91
2019-04-11T12:35:57.956Z,25.62
2019-04-11T12:36:56.414Z,25.71
2019-04-11T12:37:56.070Z,25.88
2019-04-11T12:38:56.249Z,26.06
2019-04-11T12:39:56.472Z,26.35
2019-04-11T12:40:56.608Z,27.02
2019-04-11T12:41:56.789Z,26.92
2019-04-11T12:42:56.971Z,26.92
2019-04-11T12:43:57.152Z,27.19
2019-04-11T12:44:59.514Z,27.97
2019-04-11T12:45:57.510Z,28.00
2019-04-11T12:46:57.687Z,28.30
2019-04-11T12:47:57.875Z,27.16
2019-04-11T12:48:58.052Z,27.00
2019-04-11T12:49:58.230Z,25.16
2019-04-11T12:50:58.412Z,25.15
2019-04-11T12:51:58.591Z,25.82
2019-04-11T12:52:58.774Z,26.21
2019-04-11T12:53:58.955Z,25.62
2019-04-11T12:54:59.139Z,25.54
2019-04-11T12:55:59.317Z,26.42
2019-04-11T12:56:59.502Z,24.49
2019-04-11T12:57:59.678Z,24.67
2019-04-11T12:58:59.860Z,25.23
2019-04-11T13:00:00.042Z,25.90
2019-04-11T13:01:00.221Z,26.06
2019-04-11T13:02:00.405Z,27.02
2019-04-11T13:03:00.589Z,27.20
2019-04-11T13:04:00.766Z,26.45
2019-04-11T13:05:00.948Z,26.57
2019-04-11T13:06:01.128Z,25.12
2019-04-11T13:07:01.317Z,24.57
2019-04-11T13:08:01.489Z,25.92
2019-04-11T13:09:01.676Z,24.29
2019-04-11T13:10:01.854Z,23.51
2019-04-11T13:11:02.040Z,23.31
2019-04-11T13:12:02.213Z,24.76
2019-04-11T13:13:02.395Z,24.28
2019-04-11T13:14:02.575Z,24.28
2019-04-11T13:15:02.755Z,24.40
2019-04-11T13:16:11.858Z,25.66
2019-04-11T13:17:03.120Z,25.08
2019-04-11T13:18:03.297Z,25.18
2019-04-11T13:19:03.499Z,25.45
2019-04-11T13:20:04.786Z,26.68
2019-04-11T13:21:03.845Z,26.17
2019-04-11T13:22:04.022Z,25.71
2019-04-11T13:23:04.210Z,25.49
2019-04-11T13:24:04.391Z,25.67
2019-04-11T13:25:04.575Z,28.44
2019-04-11T13:26:04.755Z,28.33
2019-04-11T13:27:04.930Z,27.66
2019-04-11T13:28:05.131Z,27.93
2019-04-11T13:29:05.290Z,27.20
2019-04-11T13:30:05.468Z,26.35
2019-04-11T13:31:05.652Z,26.84
2019-04-11T13:32:05.832Z,25.70
2019-04-11T13:33:06.010Z,26.21
2019-04-11T13:34:06.193Z,25.16
2019-04-11T13:35:06.370Z,24.49
2019-04-11T13:36:06.551Z,25.27
2019-04-11T13:37:06.734Z,24.21
2019-04-11T13:38:06.911Z,22.75
2019-04-11T13:39:07.090Z,23.14
2019-04-11T13:40:07.345Z,24.38
2019-04-11T13:41:07.517Z,25.62
2019-04-11T13:42:07.694Z,25.02
2019-04-11T13:43:07.874Z,26.18
2019-04-11T13:44:09.820Z,26.11
2019-04-11T13:45:10.070Z,24.19
2019-04-11T13:46:08.419Z,23.80
2019-04-11T13:47:08.598Z,24.87
2019-04-11T13:48:08.777Z,25.45
2019-04-11T13:49:08.963Z,24.58
2019-04-11T13:50:16.386Z,25.37
2019-04-11T13:51:09.321Z,24.02
2019-04-11T13:52:09.502Z,24.21
2019-04-11T13:53:09.682Z,25.07
2019-04-11T13:54:09.863Z,24.18
2019-04-11T13:55:10.044Z,24.74
2019-04-11T13:56:10.223Z,25.68
2019-04-11T13:57:10.406Z,26.25
2019-04-11T13:58:10.592Z,26.46
2019-04-11T13:59:10.768Z,26.57
2019-04-11T14:00:10.951Z,27.06
2019-04-11T14:01:11.131Z,26.02
2019-04-11T14:02:11.310Z,26.22
2019-04-11T14:03:11.493Z,25.26
2019-04-11T14:04:11.670Z,23.61
2019-04-11T14:05:11.849Z,24.09
2019-04-11T14:06:12.029Z,24.28
2019-04-11T14:07:12.214Z,25.15
2019-04-11T14:08:12.394Z,24.77
2019-04-11T14:09:12.571Z,26.02
2019-04-11T14:10:12.753Z,26.02
2019-04-11T14:11:12.941Z,26.57
2019-04-11T14:12:13.121Z,25.23
2019-04-11T14:13:13.304Z,25.23
2019-04-11T14:14:13.483Z,24.38
2019-04-11T14:15:13.667Z,24.68
2019-04-11T14:16:13.846Z,25.24
2019-04-11T14:17:14.027Z,24.26
2019-04-11T14:18:14.205Z,24.46
2019-04-11T14:19:14.387Z,25.52
2019-04-11T14:20:14.573Z,25.85
2019-04-11T14:21:14.994Z,24.19
2019-04-11T14:22:14.930Z,24.09
2019-04-11T14:23:15.290Z,23.41
2019-04-11T14:24:15.289Z,24.19
2019-04-11T14:25:15.469Z,24.86
2019-04-11T14:26:15.660Z,24.77
2019-04-11T14:27:15.833Z,24.10
2019-04-11T14:28:16.013Z,25.73
2019-04-11T14:29:16.196Z,24.01
2019-04-11T14:30:18.558Z,24.84
2019-04-11T14:31:16.555Z,25.01
2019-04-11T14:32:16.735Z,26.42
2019-04-11T14:33:16.916Z,26.79
2019-04-11T14:34:17.095Z,28.42
2019-04-11T14:35:17.277Z,29.47
2019-04-11T14:36:17.456Z,29.55
2019-04-11T14:37:17.634Z,29.35
2019-04-11T14:38:17.813Z,29.47
2019-04-11T14:39:17.995Z,28.92
2019-04-11T14:40:18.175Z,28.55
2019-04-11T14:41:18.357Z,27.33
2019-04-11T14:42:18.688Z,26.56
2019-04-11T14:43:18.714Z,26.39
2019-04-11T14:44:18.892Z,25.70
2019-04-11T14:45:19.072Z,25.10
2019-04-11T14:46:19.252Z,26.36
2019-04-11T14:47:19.431Z,26.75
2019-04-11T14:48:19.609Z,24.90
2019-04-11T14:49:19.790Z,25.54
2019-04-11T14:50:19.968Z,26.31
2019-04-11T14:51:20.146Z,26.79
2019-04-11T14:52:20.326Z,26.82
2019-04-11T14:53:20.505Z,27.01
2019-04-11T14:54:20.689Z,27.27
2019-04-11T14:55:20.864Z,26.98
2019-04-11T14:56:22.195Z,28.79
2019-04-11T14:57:23.291Z,29.94
2019-04-11T14:58:23.537Z,28.60
2019-04-11T14:59:23.980Z,28.41
2019-04-11T15:00:21.893Z,28.23
2019-04-11T15:01:23.697Z,29.88
2019-04-11T15:02:22.114Z,28.93
2019-04-11T15:03:22.292Z,29.14
2019-04-11T15:04:22.468Z,27.80
2019-04-11T15:05:22.648Z,26.75
2019-04-11T15:06:22.826Z,26.17
2019-04-11T15:07:23.006Z,26.87
2019-04-11T15:08:23.181Z,24.66
2019-04-11T15:09:23.361Z,24.28
2019-04-11T15:10:23.543Z,24.28
2019-04-11T15:11:23.720Z,25.43
2019-04-11T15:12:23.901Z,25.11
2019-04-11T15:13:24.828Z,25.88
2019-04-11T15:14:24.242Z,26.94
2019-04-11T15:15:24.426Z,27.81
2019-04-11T15:16:24.601Z,27.33
2019-04-11T15:17:26.417Z,27.00
2019-04-11T15:18:27.038Z,28.68
2019-04-11T15:19:25.136Z,29.24
2019-04-11T15:20:25.318Z,30.76
2019-04-11T15:21:25.493Z,30.75
2019-04-11T15:22:25.669Z,31.98
2019-04-11T15:23:25.853Z,33.03
2019-04-11T15:24:26.022Z,33.03
2019-04-11T15:25:26.201Z,33.43
2019-04-11T15:26:26.375Z,33.37
2019-04-11T15:27:26.555Z,32.70
2019-04-11T15:28:26.734Z,32.14
2019-04-11T15:29:26.912Z,31.77
2019-04-11T15:30:27.107Z,30.23
2019-04-11T15:31:38.507Z,30.04
2019-04-11T15:32:27.448Z,29.66
2019-04-11T15:33:27.624Z,30.04
2019-04-11T15:34:27.806Z,30.89
2019-04-11T15:35:27.981Z,30.43
2019-04-11T15:36:28.592Z,29.64
2019-04-11T15:37:28.657Z,30.67
2019-04-11T15:38:28.513Z,31.02
2019-04-11T15:39:28.690Z,32.44
2019-04-11T15:40:28.865Z,33.57
2019-04-11T15:41:29.044Z,34.03
2019-04-11T15:42:29.221Z,35.47
2019-04-11T15:43:29.396Z,35.20
2019-04-11T15:44:29.575Z,35.10
2019-04-11T15:45:29.757Z,35.68
2019-04-11T15:46:29.932Z,36.43
2019-04-11T15:47:30.110Z,36.60
2019-04-11T15:48:30.291Z,36.58
2019-04-11T15:49:31.544Z,37.05
2019-04-11T15:50:31.105Z,37.05
2019-04-11T15:51:30.819Z,38.18
2019-04-11T15:52:30.994Z,39.61
2019-04-11T15:53:31.173Z,39.61
2019-04-11T15:54:31.348Z,39.22
2019-04-11T15:55:31.525Z,39.88
2019-04-11T15:56:31.701Z,40.64
2019-04-11T15:57:31.874Z,39.32
2019-04-11T15:58:32.048Z,38.35
2019-04-11T15:59:32.227Z,38.45
2019-04-11T16:00:32.398Z,38.93
2019-04-11T16:01:32.574Z,39.22
2019-04-11T16:02:32.750Z,38.83
2019-04-11T16:03:32.924Z,40.36
2019-04-11T16:04:33.099Z,40.44
2019-04-11T16:05:33.277Z,41.29
2019-04-11T16:06:35.239Z,41.67
2019-04-11T16:07:37.397Z,41.77
2019-04-11T16:08:33.802Z,41.67
2019-04-11T16:09:33.978Z,41.75
2019-04-11T16:10:36.308Z,41.67
2019-04-11T16:11:34.328Z,41.10
2019-04-11T16:12:34.503Z,40.32
2019-04-11T16:13:34.682Z,41.27
2019-04-11T16:14:34.852Z,41.56
2019-04-11T16:15:35.023Z,42.51
2019-04-11T16:16:35.195Z,43.27
2019-04-11T16:17:35.371Z,42.89
2019-04-11T16:18:35.543Z,43.27
2019-04-11T16:19:35.715Z,43.08
2019-04-11T16:20:35.889Z,42.32
2019-04-11T16:21:36.063Z,41.39
2019-04-11T16:22:36.237Z,40.12
2019-04-11T16:23:36.407Z,40.15
2019-04-11T16:24:36.580Z,40.44
2019-04-11T16:25:36.752Z,41.67
2019-04-11T16:26:36.927Z,41.29
2019-04-11T16:27:37.287Z,40.36
2019-04-11T16:28:38.246Z,39.59
2019-04-11T16:29:38.902Z,39.04
2019-04-11T16:30:39.647Z,39.52
2019-04-11T16:31:40.003Z,38.76
2019-04-11T16:32:37.972Z,39.02
2019-04-11T16:33:38.143Z,39.59
2019-04-11T16:34:47.836Z,39.69
2019-04-11T16:35:38.498Z,40.24
2019-04-11T16:36:38.664Z,40.72
2019-04-11T16:37:38.834Z,41.29
2019-04-11T16:38:39.005Z,41.67
2019-04-11T16:39:39.177Z,41.67
2019-04-11T16:40:39.351Z,42.03
2019-04-11T16:41:39.529Z,42.41
2019-04-11T16:42:39.700Z,42.60
2019-04-11T16:43:39.873Z,43.10
2019-04-11T16:44:40.045Z,43.10
2019-04-11T16:45:40.216Z,43.68
2019-04-11T16:46:40.390Z,43.87
2019-04-11T16:47:40.561Z,43.87
2019-04-11T16:48:40.735Z,41.77
2019-04-11T16:49:42.282Z,41.67
2019-04-11T16:50:41.081Z,41.86
2019-04-11T16:51:41.247Z,41.86
2019-04-11T16:52:41.420Z,41.67
2019-04-11T16:53:41.594Z,41.56
2019-04-11T16:54:41.768Z,41.94
2019-04-11T16:55:43.360Z,42.13
2019-04-11T16:56:43.910Z,42.03
2019-04-11T16:57:44.194Z,42.87